createdAt,value
2022-11-14T00:00:48.203Z,27.33
2022-11-14T00:03:33.788Z,31.65
2022-11-14T00:06:19.788Z,36.65
2022-11-14T00:09:05.741Z,29.30
2022-11-14T00:11:51.480Z,32.47
2022-11-14T00:14:37.396Z,31.33
2022-11-14T00:17:23.240Z,25.02
2022-11-14T00:20:10.292Z,34.60
2022-11-14T00:22:56.848Z,28.73
2022-11-14T00:25:43.919Z,27.52
2022-11-14T00:28:29.964Z,24.92
2022-11-14T00:31:16.439Z,36.13
2022-11-14T00:34:02.050Z,26.60
2022-11-14T00:36:47.652Z,32.72
2022-11-14T00:39:33.464Z,32.65
2022-11-14T00:42:19.093Z,31.40
2022-11-14T00:45:05.275Z,37.92
2022-11-14T00:50:38.012Z,25.52
2022-11-14T00:53:23.781Z,24.95
2022-11-14T00:56:09.479Z,27.98
2022-11-14T00:58:55.319Z,23.33
2022-11-14T01:01:41.122Z,20.70
2022-11-14T01:04:26.664Z,23.65
2022-11-14T01:07:12.411Z,28.87
2022-11-14T01:09:58.013Z,27.90
2022-11-14T01:12:43.727Z,20.70
2022-11-14T01:15:29.483Z,21.85
2022-11-14T01:18:17.182Z,21.65
2022-11-14T01:21:07.046Z,23.23
2022-11-14T01:23:52.839Z,22.83
2022-11-14T01:26:38.535Z,21.15
2022-11-14T01:29:24.291Z,20.45
2022-11-14T01:32:10.424Z,21.12
2022-11-14T01:34:55.980Z,21.92
2022-11-14T01:37:41.732Z,23.15
2022-11-14T01:40:27.565Z,22.80
2022-11-14T01:43:19.601Z,19.27
2022-11-14T01:46:15.525Z,25.80
2022-11-14T01:49:21.660Z,33.13
2022-11-14T01:52:13.845Z,24.37
2022-11-14T01:55:01.338Z,27.77
2022-11-14T01:57:47.193Z,24.55
2022-11-14T02:00:33.060Z,23.85
2022-11-14T02:03:18.824Z,27.00
2022-11-14T02:06:04.696Z,31.65
2022-11-14T02:08:51.191Z,21.67
2022-11-14T02:14:24.160Z,22.77
2022-11-14T02:17:39.950Z,23.15
2022-11-14T02:20:20.004Z,27.25
2022-11-14T02:23:05.959Z,26.95
2022-11-14T02:25:51.612Z,35.75
2022-11-14T02:28:37.288Z,22.37
2022-11-14T02:31:22.851Z,30.15
2022-11-14T02:34:08.710Z,21.85
2022-11-14T02:36:54.418Z,32.70
2022-11-14T02:39:40.804Z,29.95
2022-11-14T02:42:26.502Z,24.85
2022-11-14T02:45:12.215Z,25.75
2022-11-14T02:47:57.956Z,23.00
2022-11-14T02:50:43.889Z,28.58
2022-11-14T02:53:29.683Z,33.75
2022-11-14T02:56:15.380Z,26.58
2022-11-14T02:59:01.037Z,18.83
2022-11-14T03:01:46.863Z,25.60
2022-11-14T03:04:33.002Z,29.73
2022-11-14T03:07:18.800Z,31.00
2022-11-14T03:10:05.544Z,30.20
2022-11-14T03:12:55.072Z,33.78
2022-11-14T03:15:40.934Z,23.27
2022-11-14T03:18:26.734Z,22.40
2022-11-14T03:21:15.100Z,26.12
2022-11-14T03:24:01.084Z,30.15
2022-11-14T03:26:46.903Z,25.37
2022-11-14T03:29:32.640Z,37.60
2022-11-14T03:32:18.331Z,28.10
2022-11-14T03:35:04.405Z,30.30
2022-11-14T03:37:52.766Z,31.85
2022-11-14T03:40:41.676Z,28.05
2022-11-14T03:43:32.326Z,26.02
2022-11-14T03:46:18.400Z,27.33
2022-11-14T03:49:04.383Z,23.12
2022-11-14T03:51:50.746Z,31.33
2022-11-14T03:54:36.468Z,23.10
2022-11-14T03:57:22.103Z,27.87
2022-11-14T04:00:08.487Z,26.80
2022-11-14T04:05:45.999Z,23.50
2022-11-14T04:08:32.381Z,26.87
2022-11-14T04:11:18.993Z,26.73
2022-11-14T04:16:50.619Z,28.50
2022-11-14T04:19:36.497Z,20.83
2022-11-14T04:22:22.005Z,26.90
2022-11-14T04:25:08.683Z,25.83
2022-11-14T04:27:54.763Z,30.23
2022-11-14T04:30:40.402Z,30.83
2022-11-14T04:33:26.508Z,31.62
2022-11-14T04:36:12.352Z,30.02
2022-11-14T04:38:58.025Z,24.35
2022-11-14T04:41:43.772Z,49.80
2022-11-14T04:44:29.452Z,44.83
2022-11-14T04:47:15.200Z,40.95
2022-11-14T04:50:00.821Z,24.90
2022-11-14T04:52:46.400Z,25.80
2022-11-14T04:55:32.245Z,27.35
2022-11-14T04:58:17.792Z,23.87
2022-11-14T05:01:10.175Z,32.30
2022-11-14T05:03:56.181Z,23.17
2022-11-14T05:06:41.986Z,26.05
2022-11-14T05:09:29.112Z,30.10
2022-11-14T05:12:14.971Z,20.75
2022-11-14T05:15:00.630Z,28.25
2022-11-14T05:17:46.240Z,21.33
2022-11-14T05:20:32.143Z,26.02
2022-11-14T05:23:23.450Z,22.98
2022-11-14T05:26:10.883Z,28.80
2022-11-14T05:28:56.826Z,28.10
2022-11-14T05:31:42.578Z,20.62
2022-11-14T05:34:28.364Z,22.77
2022-11-14T05:37:14.196Z,28.70
2022-11-14T05:39:59.872Z,24.87
2022-11-14T05:42:45.573Z,24.12
2022-11-14T05:45:31.467Z,23.83
2022-11-14T05:48:17.062Z,21.45
2022-11-14T05:51:03.874Z,22.23
2022-11-14T05:53:49.913Z,25.33
2022-11-14T05:56:35.808Z,19.65
2022-11-14T05:59:21.905Z,32.50
2022-11-14T06:02:07.603Z,22.45
2022-11-14T06:04:54.005Z,20.23
2022-11-14T06:07:40.117Z,23.75
2022-11-14T06:10:26.112Z,25.95
2022-11-14T06:13:11.852Z,22.42
2022-11-14T06:16:04.572Z,23.77
2022-11-14T06:18:52.791Z,24.13
2022-11-14T06:21:38.851Z,24.85
2022-11-14T06:24:24.586Z,23.67
2022-11-14T06:27:10.298Z,28.48
2022-11-14T06:29:55.841Z,26.75
2022-11-14T06:32:41.637Z,27.48
2022-11-14T06:35:27.562Z,26.98
2022-11-14T06:38:13.446Z,23.52
2022-11-14T06:41:06.245Z,29.52
2022-11-14T06:43:55.449Z,25.10
2022-11-14T06:46:41.085Z,28.08
2022-11-14T06:49:27.863Z,28.95
2022-11-14T06:52:13.761Z,25.85
2022-11-14T06:54:59.435Z,27.62
2022-11-14T06:57:45.284Z,26.58
2022-11-14T07:00:31.336Z,28.92
2022-11-14T07:03:17.536Z,32.10
2022-11-14T07:06:03.768Z,26.27
2022-11-14T07:11:35.074Z,25.42
2022-11-14T07:14:20.908Z,23.02
2022-11-14T07:17:06.899Z,22.25
2022-11-14T07:19:52.856Z,23.83
2022-11-14T07:22:38.840Z,24.90
2022-11-14T07:25:24.645Z,23.60
2022-11-14T07:28:10.545Z,24.98
2022-11-14T07:30:56.273Z,27.60
2022-11-14T07:33:41.997Z,25.85
2022-11-14T07:36:28.477Z,30.42
2022-11-14T07:39:14.490Z,31.30
2022-11-14T07:42:00.339Z,26.87
2022-11-14T07:44:46.142Z,33.97
2022-11-14T07:47:31.843Z,34.42
2022-11-14T07:50:20.572Z,29.90
2022-11-14T07:53:08.762Z,29.33
2022-11-14T07:55:57.102Z,30.20
2022-11-14T07:58:46.525Z,28.40
2022-11-14T08:01:32.892Z,28.45
2022-11-14T08:04:19.071Z,28.65
2022-11-14T08:07:04.821Z,28.38
2022-11-14T08:12:38.565Z,27.45
2022-11-14T08:15:24.554Z,28.52
2022-11-14T08:18:10.641Z,28.23
2022-11-14T08:20:57.678Z,25.37
2022-11-14T08:23:45.318Z,25.77
2022-11-14T08:26:34.231Z,24.80
2022-11-14T08:29:21.077Z,23.75
2022-11-14T08:34:52.559Z,20.83
2022-11-14T08:37:38.315Z,21.20
2022-11-14T08:40:24.010Z,17.08
2022-11-14T08:43:11.694Z,21.85
2022-11-14T08:46:02.236Z,19.92
2022-11-14T08:48:48.494Z,21.17
2022-11-14T08:51:36.443Z,20.37
2022-11-14T08:54:22.458Z,21.98
2022-11-14T08:57:08.336Z,24.35
2022-11-14T08:59:55.435Z,22.27
2022-11-14T09:02:41.476Z,19.95
2022-11-14T09:05:27.235Z,22.33
2022-11-14T09:08:13.062Z,22.42
2022-11-14T09:11:05.186Z,19.67
2022-11-14T09:13:51.959Z,21.80
2022-11-14T09:16:37.696Z,21.75
2022-11-14T09:19:23.508Z,20.77
2022-11-14T09:22:09.206Z,20.77
2022-11-14T09:24:55.113Z,20.55
2022-11-14T09:27:40.891Z,19.35
2022-11-14T09:30:26.484Z,20.37
2022-11-14T09:33:12.370Z,18.42
2022-11-14T09:38:47.818Z,18.85
2022-11-14T09:41:49.250Z,21.05
2022-11-14T09:44:47.330Z,21.65
2022-11-14T09:47:44.448Z,20.30
2022-11-14T09:50:34.797Z,21.55
2022-11-14T09:53:26.339Z,21.42
2022-11-14T09:56:13.530Z,21.58
2022-11-14T09:58:59.350Z,21.52
2022-11-14T10:01:59.991Z,21.98
2022-11-14T10:05:00.027Z,21.25
2022-11-14T10:07:54.105Z,21.08
2022-11-14T10:10:49.279Z,22.35
2022-11-14T10:13:47.650Z,22.30
2022-11-14T10:16:54.654Z,20.73
2022-11-14T10:19:43.033Z,22.52
2022-11-14T10:23:09.167Z,22.70
2022-11-14T10:26:07.775Z,22.92
2022-11-14T10:29:08.463Z,21.85
2022-11-14T10:32:21.976Z,23.02
2022-11-14T10:35:28.718Z,21.73
2022-11-14T10:38:26.435Z,22.30
2022-11-14T10:41:28.477Z,23.10
2022-11-14T10:44:20.924Z,21.12
2022-11-14T10:47:08.943Z,21.37
2022-11-14T10:49:55.476Z,22.87
2022-11-14T10:52:41.831Z,22.05
2022-11-14T10:55:57.474Z,22.10
2022-11-14T10:58:47.319Z,23.77
2022-11-14T11:01:40.630Z,20.75
2022-11-14T11:04:30.543Z,20.60
2022-11-14T11:07:40.472Z,21.73
2022-11-14T11:10:45.312Z,21.42
2022-11-14T11:13:32.226Z,20.12
2022-11-14T11:16:20.357Z,22.25
2022-11-14T11:19:35.382Z,22.70
2022-11-14T11:22:24.068Z,21.52
2022-11-14T11:25:27.084Z,20.65
2022-11-14T11:28:17.890Z,21.50
2022-11-14T11:31:07.966Z,22.77
2022-11-14T11:33:53.765Z,20.15
2022-11-14T11:36:45.576Z,19.23
2022-11-14T11:39:33.423Z,20.77
2022-11-14T11:43:16.768Z,20.88
2022-11-14T11:45:39.398Z,22.13
2022-11-14T11:48:30.541Z,22.30
2022-11-14T11:51:17.844Z,22.05
2022-11-14T11:54:12.843Z,21.27
2022-11-14T11:57:00.997Z,21.73
2022-11-14T11:59:48.827Z,22.83
2022-11-14T12:02:34.921Z,21.90
2022-11-14T12:05:42.512Z,22.05
2022-11-14T12:09:03.955Z,22.90
2022-11-14T12:11:55.090Z,22.30
2022-11-14T12:14:59.928Z,22.52
2022-11-14T12:17:54.864Z,22.55
2022-11-14T12:21:09.979Z,23.65
2022-11-14T12:24:05.505Z,22.85
2022-11-14T12:26:54.365Z,20.80
2022-11-14T12:29:51.394Z,21.20
2022-11-14T12:32:39.968Z,21.92
2022-11-14T12:35:30.639Z,21.35
2022-11-14T12:38:20.615Z,19.45
2022-11-14T12:41:07.970Z,18.67
2022-11-14T12:43:53.943Z,20.27
2022-11-14T12:47:05.870Z,17.60
2022-11-14T12:49:52.676Z,19.23
2022-11-14T12:52:41.054Z,19.62
2022-11-14T12:55:26.788Z,17.17
2022-11-14T12:58:42.580Z,17.98
2022-11-14T13:01:28.736Z,16.52
2022-11-14T13:04:35.698Z,17.42
2022-11-14T13:07:53.972Z,16.37
2022-11-14T13:10:40.409Z,16.17
2022-11-14T13:16:49.654Z,14.68
2022-11-14T13:19:54.112Z,13.25
2022-11-14T13:22:41.096Z,13.52
2022-11-14T13:25:27.273Z,14.20
2022-11-14T13:28:37.974Z,15.27
2022-11-14T13:31:25.477Z,12.70
2022-11-14T13:34:30.404Z,13.32
2022-11-14T13:37:40.438Z,13.65
2022-11-14T13:40:38.235Z,14.40
2022-11-14T13:43:33.266Z,13.98
2022-11-14T13:46:25.484Z,14.90
2022-11-14T13:49:29.666Z,13.88
2022-11-14T13:52:15.634Z,14.80
2022-11-14T13:55:01.560Z,14.27
2022-11-14T13:58:06.949Z,14.05
2022-11-14T14:00:59.535Z,14.93
2022-11-14T14:04:01.527Z,14.82
2022-11-14T14:07:26.276Z,14.80
2022-11-14T14:10:47.755Z,15.70
2022-11-14T14:14:04.682Z,14.75
2022-11-14T14:16:58.680Z,13.50
2022-11-14T14:19:51.670Z,14.23
2022-11-14T14:22:52.944Z,14.48
2022-11-14T14:25:58.712Z,14.15
2022-11-14T14:28:50.347Z,14.73
2022-11-14T14:31:40.426Z,14.02
2022-11-14T14:34:30.205Z,14.65
2022-11-14T14:37:26.116Z,13.13
2022-11-14T14:43:12.641Z,15.43
2022-11-14T14:45:58.707Z,18.02
2022-11-14T14:48:44.632Z,18.48
2022-11-14T14:51:34.987Z,20.20
2022-11-14T14:54:25.446Z,19.35
2022-11-14T14:57:17.141Z,19.62
2022-11-14T15:00:08.325Z,24.42
2022-11-14T15:02:54.585Z,24.10
2022-11-14T15:08:25.911Z,26.17
2022-11-14T15:11:12.472Z,24.12
2022-11-14T15:13:58.557Z,24.10
2022-11-14T15:16:45.204Z,22.95
2022-11-14T15:19:37.701Z,22.27
2022-11-14T15:22:25.066Z,22.52
2022-11-14T15:25:10.683Z,22.77
2022-11-14T15:28:00.209Z,20.23
2022-11-14T15:30:59.544Z,20.12
2022-11-14T15:33:45.311Z,18.87
2022-11-14T15:36:30.977Z,20.15
2022-11-14T15:39:27.553Z,18.40
2022-11-14T15:42:28.317Z,18.95
2022-11-14T15:45:27.915Z,16.30
2022-11-14T15:48:15.720Z,18.92
2022-11-14T15:51:01.446Z,19.48
2022-11-14T15:53:49.145Z,19.60
2022-11-14T15:56:35.252Z,19.35
2022-11-14T15:59:21.215Z,21.30
2022-11-14T16:02:13.040Z,20.17
2022-11-14T16:04:59.150Z,19.92
2022-11-14T16:07:44.894Z,22.65
2022-11-14T16:10:30.697Z,24.48
2022-11-14T16:13:16.392Z,25.48
2022-11-14T16:16:02.188Z,26.27
2022-11-14T16:18:47.841Z,27.80
2022-11-14T16:21:33.572Z,29.27
2022-11-14T16:24:21.671Z,26.90
2022-11-14T16:27:07.445Z,28.00
2022-11-14T16:29:53.667Z,36.08
2022-11-14T16:32:40.326Z,44.13
2022-11-14T16:35:26.439Z,43.65
2022-11-14T16:38:12.774Z,40.75
2022-11-14T16:41:00.380Z,35.25
2022-11-14T16:43:46.399Z,33.00
2022-11-14T16:46:32.216Z,28.17
2022-11-14T16:49:19.567Z,31.70
2022-11-14T16:52:08.559Z,36.40
2022-11-14T16:54:54.499Z,38.20
2022-11-14T16:57:40.401Z,38.38
2022-11-14T17:00:26.080Z,41.42
2022-11-14T17:03:11.985Z,37.95
2022-11-14T17:05:57.922Z,39.25
2022-11-14T17:08:43.605Z,37.25
2022-11-14T17:11:29.410Z,37.55
2022-11-14T17:14:15.315Z,36.85
2022-11-14T17:17:03.946Z,38.47
2022-11-14T17:19:50.027Z,36.53
2022-11-14T17:22:35.815Z,35.30
2022-11-14T17:25:21.501Z,34.50
2022-11-14T17:28:07.387Z,31.30
2022-11-14T17:30:53.045Z,34.63
2022-11-14T17:33:38.668Z,30.45
2022-11-14T17:36:26.153Z,24.12
2022-11-14T17:39:12.011Z,28.90
2022-11-14T17:41:57.660Z,32.25
2022-11-14T17:44:43.398Z,37.03
2022-11-14T17:47:29.192Z,37.38
2022-11-14T17:50:15.257Z,31.83
2022-11-14T17:53:01.133Z,32.33
2022-11-14T17:55:46.896Z,33.53
2022-11-14T17:58:33.209Z,35.30
2022-11-14T18:01:21.200Z,35.25
2022-11-14T18:04:07.283Z,39.45
2022-11-14T18:06:53.309Z,40.50
2022-11-14T18:12:25.080Z,36.70
2022-11-14T18:15:10.872Z,42.88
2022-11-14T18:17:56.465Z,41.60
2022-11-14T18:20:42.161Z,35.28
2022-11-14T18:23:27.875Z,46.50
2022-11-14T18:26:15.576Z,42.47
2022-11-14T18:29:02.327Z,42.50
2022-11-14T18:31:48.481Z,39.50
2022-11-14T18:37:23.242Z,37.75
2022-11-14T18:40:16.150Z,42.47
2022-11-14T18:43:02.712Z,42.80
2022-11-14T18:45:48.398Z,43.17
2022-11-14T18:48:37.840Z,46.60
2022-11-14T18:51:26.519Z,45.35
2022-11-14T18:54:13.460Z,41.88
2022-11-14T18:57:00.192Z,40.08
2022-11-14T18:59:45.828Z,38.33
2022-11-14T19:02:31.590Z,31.67
2022-11-14T19:05:17.752Z,31.00
2022-11-14T19:08:05.257Z,29.95
2022-11-14T19:10:51.118Z,33.30
2022-11-14T19:13:36.947Z,32.13
2022-11-14T19:16:23.021Z,33.78
2022-11-14T19:19:09.050Z,33.33
2022-11-14T19:21:55.185Z,31.40
2022-11-14T19:24:43.085Z,32.38
2022-11-14T19:27:28.738Z,28.67
2022-11-14T19:30:16.490Z,32.70
2022-11-14T19:33:03.344Z,31.52
2022-11-14T19:35:48.952Z,31.67
2022-11-14T19:38:34.720Z,33.60
2022-11-14T19:41:20.757Z,31.90
2022-11-14T19:46:52.486Z,32.17
2022-11-14T19:49:38.256Z,30.50
2022-11-14T19:52:23.949Z,30.30
2022-11-14T19:55:09.675Z,31.60
2022-11-14T19:57:55.422Z,30.45
2022-11-14T20:00:41.237Z,29.42
2022-11-14T20:03:27.086Z,30.75
2022-11-14T20:06:21.753Z,32.95
2022-11-14T20:09:08.895Z,32.38
2022-11-14T20:11:54.655Z,32.53
2022-11-14T20:14:40.230Z,36.47
2022-11-14T20:17:25.961Z,33.30
2022-11-14T20:20:11.581Z,40.03
2022-11-14T20:22:57.229Z,43.55
2022-11-14T20:25:43.242Z,43.28
2022-11-14T20:28:28.964Z,48.58
2022-11-14T20:31:16.345Z,40.78
2022-11-14T20:34:01.994Z,42.62
2022-11-14T20:37:09.773Z,43.72
2022-11-14T20:39:53.328Z,40.75
2022-11-14T20:42:39.022Z,41.63
2022-11-14T20:45:24.959Z,49.17
2022-11-14T20:48:10.544Z,51.20
2022-11-14T20:51:12.878Z,47.10
2022-11-14T20:53:58.604Z,49.33
2022-11-14T20:56:44.679Z,46.92
2022-11-14T20:59:30.723Z,46.30
2022-11-14T21:02:16.442Z,45.45
2022-11-14T21:05:02.647Z,45.33
2022-11-14T21:07:48.236Z,38.80
2022-11-14T21:10:45.777Z,38.90
2022-11-14T21:13:50.366Z,38.05
2022-11-14T21:16:38.628Z,40.63
2022-11-14T21:19:25.323Z,35.28
2022-11-14T21:24:56.787Z,37.53
2022-11-14T21:27:42.674Z,39.15
2022-11-14T21:30:31.038Z,38.50
2022-11-14T21:33:16.891Z,42.83
2022-11-14T21:36:29.678Z,47.03
2022-11-14T21:39:15.036Z,38.53
2022-11-14T21:42:01.465Z,38.90
2022-11-14T21:44:47.006Z,44.95
2022-11-14T21:47:33.717Z,43.15
2022-11-14T21:50:19.611Z,39.90
2022-11-14T21:53:15.891Z,46.78
2022-11-14T21:56:15.578Z,41.47
2022-11-14T21:59:14.238Z,45.80
2022-11-14T22:02:19.163Z,45.87
2022-11-14T22:05:05.164Z,43.63
2022-11-14T22:07:51.015Z,49.03
2022-11-14T22:10:36.761Z,46.05
2022-11-14T22:13:22.453Z,48.13
2022-11-14T22:16:08.722Z,45.67
2022-11-14T22:18:54.618Z,47.25
2022-11-14T22:21:40.464Z,49.20
2022-11-14T22:24:26.501Z,47.62
2022-11-14T22:27:12.208Z,45.72
2022-11-14T22:29:58.074Z,48.87
2022-11-14T22:32:43.747Z,46.80
2022-11-14T22:35:29.456Z,42.03
2022-11-14T22:41:01.633Z,43.70
2022-11-14T22:43:47.751Z,47.55
2022-11-14T22:46:33.529Z,42.58
2022-11-14T22:49:21.243Z,56.53
2022-11-14T22:52:07.392Z,43.17
2022-11-14T22:54:53.135Z,52.33
2022-11-14T22:57:38.651Z,52.80
2022-11-14T23:00:25.437Z,55.17
2022-11-14T23:03:13.034Z,54.90
2022-11-14T23:06:06.683Z,55.05
2022-11-14T23:08:52.730Z,51.22
2022-11-14T23:11:38.815Z,44.35
2022-11-14T23:14:24.531Z,47.00
2022-11-14T23:17:10.112Z,49.47
2022-11-14T23:19:56.417Z,49.22
2022-11-14T23:22:41.962Z,48.13
2022-11-14T23:25:27.733Z,44.50
2022-11-14T23:28:13.450Z,49.20
2022-11-14T23:30:59.413Z,39.42
2022-11-14T23:33:52.614Z,41.60
2022-11-14T23:36:38.454Z,40.95
2022-11-14T23:39:24.208Z,36.55
2022-11-14T23:42:09.911Z,33.60
2022-11-14T23:44:55.897Z,35.38
2022-11-14T23:47:41.573Z,30.62
2022-11-14T23:50:27.307Z,35.70
2022-11-14T23:53:13.324Z,37.20
2022-11-14T23:56:00.041Z,34.70
2022-11-14T23:58:45.814Z,33.38
